Time;durP1;ratioP1;P1;durP2;ratioP2;P2;SDS_P1;SDS_P2;PMS_P1;PMS_P2;Temp;Humidity;BMP_temperature;BMP_pressure;BME280_temperature;BME280_humidity;BME280_pressure;Samples;Min_cycle;Max_cycle;Signal;HPM_P1;HPM_P2
2022/05/05 00:01:18;;;;;;;25.03;10.83;;;;;;;10.76;71.70;101965.25;5030125;28;20476;-81
2022/05/05 00:03:44;;;;;;;22.38;10.30;;;;;;;10.79;72.55;101962.63;5045216;28;20293;-81
2022/05/05 00:06:09;;;;;;;23.35;9.88;;;;;;;10.79;72.26;101955.69;5028159;28;20583;-81
2022/05/05 00:08:34;;;;;;;26.37;10.23;;;;;;;10.84;72.71;101960.88;5029816;28;20069;-81
2022/05/05 00:16:27;;;;;;;26.10;9.67;;;;;;;10.88;72.53;101962.56;5039294;28;20380;-81
2022/05/05 00:18:53;;;;;;;23.00;10.03;;;;;;;10.90;72.91;101966.03;5031101;28;20463;-81
2022/05/05 00:21:18;;;;;;;27.93;10.60;;;;;;;10.90;72.48;101971.22;5029076;28;20368;-81
2022/05/05 00:23:43;;;;;;;24.43;9.97;;;;;;;10.92;73.01;101962.53;5030103;28;20643;-81
2022/05/05 00:26:09;;;;;;;27.10;10.35;;;;;;;10.92;72.92;101966.84;5028982;28;20373;-81
2022/05/05 00:28:34;;;;;;;24.47;10.23;;;;;;;10.93;73.04;101969.44;5038178;28;20036;-81
2022/05/05 00:30:59;;;;;;;25.75;10.98;;;;;;;10.94;72.85;101965.13;5032807;28;20618;-81
2022/05/05 00:33:25;;;;;;;23.65;10.40;;;;;;;10.96;72.40;101972.03;5032845;28;20261;-81
2022/05/05 00:35:50;;;;;;;27.73;10.90;;;;;;;10.96;72.93;101965.97;5037123;28;20456;-80
2022/05/05 00:38:16;;;;;;;26.00;10.20;;;;;;;10.97;72.99;101965.97;5043346;28;20287;-81
2022/05/05 00:40:43;;;;;;;26.65;11.05;;;;;;;10.98;72.98;101970.28;5029072;28;20576;-81
2022/05/05 00:43:09;;;;;;;25.35;10.40;;;;;;;10.98;73.28;101972.88;5028121;28;20026;-81
2022/05/05 00:45:35;;;;;;;24.38;10.35;;;;;;;10.97;72.92;101965.97;5039593;28;20024;-81
2022/05/05 00:48:08;;;;;;;26.23;10.32;;;;;;;11.00;73.18;101960.75;5030881;28;20024;-81
2022/05/05 00:50:35;;;;;;;26.02;10.70;;;;;;;11.00;74.04;101958.16;5029256;28;20109;-81
2022/05/05 00:53:01;;;;;;;25.25;10.50;;;;;;;10.99;73.90;101952.97;5023130;28;20041;-81
2022/05/05 00:55:27;;;;;;;24.90;10.38;;;;;;;10.97;73.77;101950.41;5037476;28;20049;-81
2022/05/05 00:57:52;;;;;;;25.98;10.48;;;;;;;10.94;73.35;101946.94;5038329;28;20021;-81
2022/05/05 01:00:18;;;;;;;25.47;10.67;;;;;;;10.90;73.19;101953.91;5031631;28;20119;-81
2022/05/05 01:02:43;;;;;;;26.45;10.60;;;;;;;10.84;72.83;101961.75;5036799;28;20292;-81
2022/05/05 01:05:09;;;;;;;27.00;10.18;;;;;;;10.74;72.80;101951.41;5027761;28;20112;-81
2022/05/05 01:07:35;;;;;;;26.00;10.30;;;;;;;10.66;72.88;101948.88;5034117;28;20032;-81
2022/05/05 01:10:00;;;;;;;28.48;10.52;;;;;;;10.59;73.08;101950.66;5030817;28;20035;-81
2022/05/05 01:12:31;;;;;;;25.65;10.90;;;;;;;10.51;73.79;101956.72;5026256;28;20029;-80
2022/05/05 01:14:58;;;;;;;28.73;11.02;;;;;;;10.42;73.68;101954.22;5037284;28;20029;-81
2022/05/05 01:17:24;;;;;;;26.98;10.55;;;;;;;10.37;73.94;101963.75;5027828;28;20029;-81
2022/05/05 01:19:50;;;;;;;27.70;11.15;;;;;;;10.28;74.01;101962.06;5028100;28;20459;-80
2022/05/05 01:22:15;;;;;;;24.37;10.37;;;;;;;10.19;74.24;101960.34;5018561;28;20492;-80
2022/05/05 01:30:08;;;;;;;28.40;11.10;;;;;;;9.94;75.10;101963.88;5028875;28;20064;-80
2022/05/05 01:32:34;;;;;;;26.58;10.65;;;;;;;9.84;74.90;101957.00;5025233;28;20647;-80
2022/05/05 01:35:00;;;;;;;23.02;10.65;;;;;;;9.78;75.62;101959.59;5028999;28;20101;-80
2022/05/05 01:37:26;;;;;;;26.02;11.00;;;;;;;9.72;75.28;101960.47;5026313;28;20067;-80
2022/05/05 01:39:51;;;;;;;24.92;10.85;;;;;;;9.67;75.87;101956.19;5026933;28;20057;-80
2022/05/05 01:42:17;;;;;;;28.77;11.20;;;;;;;9.60;75.89;101955.34;5026651;28;20049;-81
2022/05/05 01:44:42;;;;;;;25.37;10.80;;;;;;;9.55;76.31;101961.38;5032250;28;20389;-80
2022/05/05 01:47:07;;;;;;;27.38;11.52;;;;;;;9.46;76.30;101957.94;5040006;28;20305;-80
2022/05/05 01:49:32;;;;;;;26.48;10.88;;;;;;;9.41;76.70;101957.09;5026288;28;20021;-81
2022/05/05 01:51:58;;;;;;;26.90;10.30;;;;;;;9.37;76.55;101968.28;5020026;28;20033;-80
2022/05/05 01:54:23;;;;;;;28.58;11.50;;;;;;;9.32;76.93;101964.84;5031714;28;20648;-80
2022/05/05 01:56:49;;;;;;;26.27;10.88;;;;;;;9.28;77.05;101968.28;5035554;28;20467;-80
2022/05/05 01:59:14;;;;;;;27.65;10.63;;;;;;;9.21;77.38;101963.97;5032266;28;20040;-80
2022/05/05 02:01:39;;;;;;;26.90;11.05;;;;;;;9.17;77.91;101962.25;5032106;28;20038;-81
2022/05/05 02:04:05;;;;;;;27.17;10.83;;;;;;;9.13;77.82;101970.91;5029466;28;20032;-80
2022/05/05 02:06:30;;;;;;;30.83;11.43;;;;;;;9.09;78.22;101970.03;5028877;28;20781;-80
2022/05/05 02:08:57;;;;;;;24.58;10.25;;;;;;;9.06;77.88;101964.88;5031959;28;20272;-80
2022/05/05 02:11:22;;;;;;;23.10;10.05;;;;;;;9.02;77.55;101968.28;5033906;28;20020;-80
2022/05/05 02:13:48;;;;;;;25.65;10.77;;;;;;;8.96;77.88;101970.00;5038703;28;20056;-80
2022/05/05 02:16:13;;;;;;;27.70;10.88;;;;;;;8.92;78.69;101970.88;5030374;28;20041;-81
2022/05/05 02:18:38;;;;;;;22.93;10.43;;;;;;;8.87;79.15;101965.69;5032790;28;20024;-80
2022/05/05 02:21:03;;;;;;;25.05;10.60;;;;;;;8.80;78.79;101963.97;5033643;28;20291;-80
2022/05/05 02:23:29;;;;;;;23.48;10.35;;;;;;;8.77;79.07;101971.72;5024356;28;20018;-80
2022/05/05 02:25:54;;;;;;;28.23;10.35;;;;;;;8.75;78.85;101967.38;5029053;28;20769;-80
2022/05/05 02:28:19;;;;;;;30.53;10.93;;;;;;;8.66;79.11;101970.84;5032045;28;20030;-80
2022/05/05 02:30:45;;;;;;;24.90;10.48;;;;;;;8.64;79.57;101977.72;5032944;28;20298;-79
2022/05/05 02:33:10;;;;;;;25.05;11.00;;;;;;;8.60;79.86;101973.38;5028628;28;20017;-81
2022/05/05 02:35:36;;;;;;;28.73;11.05;;;;;;;8.54;80.37;101970.78;5029480;28;20488;-80
2022/05/05 02:40:45;;;;;;;30.20;10.80;;;;;;;8.45;80.47;101969.06;5032465;28;20302;-80
2022/05/05 02:43:10;;;;;;;28.13;10.68;;;;;;;8.43;80.52;101969.91;5024919;28;20022;-80
2022/05/05 02:45:36;;;;;;;25.60;10.63;;;;;;;8.38;80.77;101980.22;5025064;28;20022;-80
2022/05/05 02:48:01;;;;;;;25.40;10.53;;;;;;;8.34;80.67;101970.72;5029902;28;20029;-80
2022/05/05 02:50:26;;;;;;;27.50;10.85;;;;;;;8.30;81.12;101975.03;5030643;28;20291;-80
2022/05/05 02:52:55;;;;;;;24.42;10.50;;;;;;;8.29;81.75;101982.75;5030369;28;20056;-80
2022/05/05 02:55:22;;;;;;;26.63;11.05;;;;;;;8.27;81.28;101981.84;5031181;28;20059;-80
2022/05/05 02:57:47;;;;;;;24.10;10.55;;;;;;;8.27;81.24;101984.44;5036867;28;20538;-79
2022/05/05 03:00:13;;;;;;;27.80;10.93;;;;;;;8.26;81.40;101986.16;5029872;28;20033;-80
2022/05/05 03:02:41;;;;;;;24.58;11.10;;;;;;;8.27;81.77;101974.97;5030159;28;20065;-80
2022/05/05 03:05:08;;;;;;;28.40;11.02;;;;;;;8.28;82.32;101973.25;5032656;28;20021;-80
2022/05/05 03:07:34;;;;;;;25.17;10.95;;;;;;;8.31;82.57;101975.91;5029626;28;20034;-80
2022/05/05 03:09:59;;;;;;;28.05;11.68;;;;;;;8.33;83.02;101975.03;5032554;28;20489;-80
2022/05/05 03:12:25;;;;;;;26.08;11.15;;;;;;;8.36;82.65;101973.31;5040478;28;20517;-80
2022/05/05 03:14:50;;;;;;;26.38;10.82;;;;;;;8.39;82.71;101971.63;5033187;28;20026;-80
2022/05/05 03:17:15;;;;;;;29.23;10.32;;;;;;;8.43;82.70;101972.47;5029347;28;20029;-80
2022/05/05 03:19:41;;;;;;;26.30;10.68;;;;;;;8.44;82.65;101984.56;5031214;28;20136;-81
2022/05/05 03:22:07;;;;;;;26.30;10.60;;;;;;;8.43;82.25;101975.94;5022941;28;20044;-80
2022/05/05 03:24:32;;;;;;;26.98;11.07;;;;;;;8.44;82.59;101977.66;5021317;28;20033;-80
2022/05/05 03:27:00;;;;;;;28.08;11.20;;;;;;;8.44;82.48;101977.66;5025465;28;20037;-80
2022/05/05 03:29:25;;;;;;;28.98;11.40;;;;;;;8.45;82.60;101981.97;5035020;28;20025;-80
2022/05/05 03:31:50;;;;;;;28.35;11.20;;;;;;;8.42;82.97;101981.09;5030725;28;20021;-80
2022/05/05 03:34:16;;;;;;;27.57;10.80;;;;;;;8.40;83.28;101985.38;5030536;28;20032;-80
2022/05/05 03:36:41;;;;;;;27.70;11.18;;;;;;;8.38;83.41;101992.28;5029189;28;20470;-80
2022/05/05 03:39:06;;;;;;;29.70;11.82;;;;;;;8.34;83.52;101981.06;5029150;28;20031;-80
2022/05/05 03:41:32;;;;;;;29.15;11.32;;;;;;;8.36;83.69;101986.25;5043523;28;20024;-80
2022/05/05 03:43:57;;;;;;;27.27;10.93;;;;;;;8.35;83.87;101984.50;5030389;28;20032;-80
2022/05/05 03:46:22;;;;;;;28.88;10.95;;;;;;;8.37;83.75;101983.66;5027387;28;20037;-80
2022/05/05 03:48:48;;;;;;;28.73;11.20;;;;;;;8.39;84.05;101997.47;5033968;28;20195;-80
2022/05/05 03:51:14;;;;;;;29.38;11.45;;;;;;;8.37;84.21;101982.81;5022215;28;20032;-80
2022/05/05 03:53:39;;;;;;;39.30;13.07;;;;;;;8.41;84.22;101989.69;5019586;28;20385;-80
2022/05/05 03:56:05;;;;;;;36.30;12.73;;;;;;;8.43;84.28;101993.16;5037965;28;20036;-80
2022/05/05 03:58:32;;;;;;;37.97;12.15;;;;;;;8.43;84.83;101994.03;5036894;28;20120;-81
2022/05/05 04:00:57;;;;;;;35.38;11.82;;;;;;;8.45;84.84;101988.88;5028003;28;20071;-80
2022/05/05 04:03:31;;;;;;;40.47;12.10;;;;;;;8.46;85.34;101994.00;5044642;28;20460;-80
2022/05/05 04:05:58;;;;;;;36.50;12.43;;;;;;;8.47;85.77;101998.31;5019769;28;20429;-80
2022/05/05 04:08:23;;;;;;;41.47;12.35;;;;;;;8.48;85.09;102002.66;5022779;28;20021;-80
2022/05/05 04:10:48;;;;;;;36.03;11.88;;;;;;;8.50;85.11;102007.81;5032890;28;20059;-79
2022/05/05 04:13:14;;;;;;;33.80;12.60;;;;;;;8.48;85.18;102007.81;5031056;28;20407;-80
2022/05/05 04:15:39;;;;;;;33.27;12.37;;;;;;;8.47;85.13;102003.50;5028723;28;20307;-80
2022/05/05 04:18:06;;;;;;;31.63;11.77;;;;;;;8.48;85.33;102018.16;5029619;28;20638;-80
2022/05/05 04:20:31;;;;;;;28.73;12.65;;;;;;;8.48;85.37;102015.56;5029799;28;20025;-80
2022/05/05 04:22:57;;;;;;;34.70;12.10;;;;;;;8.53;85.50;102016.44;5035703;28;20082;-80
2022/05/05 04:25:22;;;;;;;28.15;12.07;;;;;;;8.55;85.02;102013.88;5030427;28;20060;-81
2022/05/05 04:27:48;;;;;;;28.80;11.77;;;;;;;8.56;84.93;102011.28;5034924;28;20025;-81
2022/05/05 04:30:16;;;;;;;28.60;12.63;;;;;;;8.61;85.43;102017.31;5028077;28;20021;-81
2022/05/05 04:32:41;;;;;;;30.05;11.68;;;;;;;8.64;85.00;102027.69;5029304;28;20055;-81
2022/05/05 04:35:07;;;;;;;34.40;13.30;;;;;;;8.68;85.20;102024.25;5029227;28;20402;-81
2022/05/05 04:37:32;;;;;;;28.13;12.02;;;;;;;8.69;85.46;102028.56;5042458;28;20087;-80
2022/05/05 04:39:58;;;;;;;30.58;12.02;;;;;;;8.70;85.18;102027.72;5030287;28;20071;-81
2022/05/05 04:42:25;;;;;;;36.13;12.50;;;;;;;8.75;85.42;102029.44;5037037;28;20027;-81
2022/05/05 04:44:50;;;;;;;39.03;12.82;;;;;;;8.76;85.61;102029.44;5026738;28;20378;-81
2022/05/05 04:47:16;;;;;;;30.33;12.98;;;;;;;8.81;85.24;102032.91;5030138;28;20105;-80
2022/05/05 04:49:41;;;;;;;36.20;14.00;;;;;;;8.86;85.44;102035.50;5026554;28;20045;-81
2022/05/05 04:52:06;;;;;;;35.93;13.70;;;;;;;8.91;85.69;102039.81;5027378;28;20032;-80
2022/05/05 04:54:32;;;;;;;44.75;15.00;;;;;;;8.97;85.89;102041.56;5019845;28;20458;-80
2022/05/05 04:56:57;;;;;;;77.00;16.03;;;;;;;9.05;85.85;102047.63;5044406;28;20361;-81
2022/05/05 04:59:22;;;;;;;55.70;14.80;;;;;;;9.13;85.21;102048.50;5026748;28;20299;-81
2022/05/05 05:01:48;;;;;;;50.13;15.17;;;;;;;9.24;85.04;102038.16;5035868;28;20873;-81
2022/05/05 05:04:13;;;;;;;46.57;16.03;;;;;;;9.33;84.88;102043.34;5027392;28;20292;-81
2022/05/05 05:06:39;;;;;;;45.10;15.63;;;;;;;9.42;84.77;102041.59;5015272;28;20324;-81
2022/05/05 05:09:04;;;;;;;35.95;14.35;;;;;;;9.52;84.19;102048.53;5018532;28;20053;-80
2022/05/05 05:11:29;;;;;;;40.85;15.02;;;;;;;9.59;83.93;102041.63;5036675;28;20022;-81
2022/05/05 05:13:55;;;;;;;42.23;14.10;;;;;;;9.69;83.60;102055.44;5027406;28;21360;-81
2022/05/05 05:16:20;;;;;;;44.85;16.52;;;;;;;9.75;83.49;102052.84;5029138;28;20281;-81
2022/05/05 05:18:47;;;;;;;38.63;14.35;;;;;;;9.82;83.61;102054.56;5032956;28;20037;-81
2022/05/05 05:21:12;;;;;;;47.22;16.08;;;;;;;9.88;83.36;102057.13;5025956;28;20024;-81
2022/05/05 05:23:38;;;;;;;45.80;14.95;;;;;;;9.96;82.99;102060.59;5021052;28;20116;-81
2022/05/05 05:26:03;;;;;;;44.47;14.98;;;;;;;9.98;82.94;102061.41;5033995;28;20021;-81
2022/05/05 05:28:28;;;;;;;46.75;15.15;;;;;;;10.00;82.43;102066.59;5045493;28;20119;-81
2022/05/05 05:30:53;;;;;;;45.65;16.55;;;;;;;10.00;82.58;102066.59;5047915;28;20032;-81
2022/05/05 05:33:19;;;;;;;38.87;15.20;;;;;;;10.03;82.65;102070.03;5031137;28;20033;-81
2022/05/05 05:35:44;;;;;;;40.47;17.05;;;;;;;10.05;82.45;102064.84;5032837;28;20789;-81
2022/05/05 05:38:10;;;;;;;46.00;17.02;;;;;;;10.09;82.71;102067.47;5031070;28;20017;-81
2022/05/05 05:40:36;;;;;;;44.33;17.00;;;;;;;10.13;82.65;102069.16;5032887;28;20402;-81
2022/05/05 05:43:01;;;;;;;40.70;17.65;;;;;;;10.16;82.56;102065.72;5032764;28;20535;-81
2022/05/05 05:45:27;;;;;;;39.20;17.27;;;;;;;10.17;82.79;102073.50;5040245;28;20032;-81
2022/05/05 05:47:52;;;;;;;43.80;17.45;;;;;;;10.21;82.22;102069.19;5032229;28;20048;-81
2022/05/05 05:50:17;;;;;;;42.33;18.43;;;;;;;10.26;82.25;102070.03;5032578;28;20032;-81
2022/05/05 05:52:43;;;;;;;44.38;18.48;;;;;;;10.32;82.81;102071.72;5032477;28;20389;-81
2022/05/05 05:55:08;;;;;;;38.35;17.08;;;;;;;10.41;82.74;102075.16;5035031;28;20120;-81
2022/05/05 05:57:34;;;;;;;45.15;18.98;;;;;;;10.55;83.07;102067.34;5032313;28;20025;-81
2022/05/05 05:59:59;;;;;;;46.20;19.70;;;;;;;10.77;82.38;102070.72;5038467;28;20051;-81
2022/05/05 06:05:28;;;;;;;46.75;20.98;;;;;;;11.09;81.72;102077.44;5030857;28;20099;-81
2022/05/05 06:07:59;;;;;;;50.20;21.50;;;;;;;11.25;80.78;102077.34;5027361;28;20387;-81
2022/05/05 06:10:25;;;;;;;49.38;21.60;;;;;;;11.54;81.62;102077.13;5022154;28;20461;-81
2022/05/05 06:12:51;;;;;;;48.20;22.23;;;;;;;11.85;80.63;102081.22;5039963;28;20024;-82
2022/05/05 06:15:16;;;;;;;46.47;22.80;;;;;;;12.07;78.42;102074.97;5034177;28;20025;-82
2022/05/05 06:17:41;;;;;;;47.22;22.58;;;;;;;12.20;78.18;102081.75;5033461;28;20168;-81
2022/05/05 06:20:07;;;;;;;49.63;22.40;;;;;;;12.29;77.29;102080.78;5033325;28;20040;-81
2022/05/05 06:22:34;;;;;;;46.95;21.80;;;;;;;12.35;77.65;102072.06;5035349;28;20143;-81
2022/05/05 06:25:00;;;;;;;43.63;22.85;;;;;;;12.42;77.24;102079.75;5032101;28;20032;-82
2022/05/05 06:27:25;;;;;;;42.50;20.52;;;;;;;12.50;75.47;102083.13;5031385;28;20029;-81
2022/05/05 06:29:51;;;;;;;39.80;20.10;;;;;;;12.55;75.66;102076.16;5032003;28;20152;-82
2022/05/05 06:32:17;;;;;;;40.27;19.07;;;;;;;12.71;72.35;102091.56;5023682;28;20296;-81
2022/05/05 06:34:42;;;;;;;40.35;19.75;;;;;;;12.82;73.07;102085.34;5034559;28;20322;-81
2022/05/05 06:37:08;;;;;;;34.42;16.60;;;;;;;12.94;68.01;102086.94;5031623;28;20060;-81
2022/05/05 06:39:33;;;;;;;38.65;17.13;;;;;;;13.04;68.88;102085.91;5029683;28;20116;-82
2022/05/05 06:42:00;;;;;;;36.97;15.83;;;;;;;13.17;68.47;102097.06;5031342;28;20021;-82
2022/05/05 06:44:25;;;;;;;36.47;15.63;;;;;;;13.39;68.32;102090.63;5030976;28;20311;-81
2022/05/05 06:46:50;;;;;;;31.13;16.17;;;;;;;13.66;69.41;102089.34;5030541;28;20029;-82
2022/05/05 06:49:17;;;;;;;32.90;15.47;;;;;;;14.00;69.64;102089.63;5045015;28;20429;-82
2022/05/05 06:51:42;;;;;;;37.90;15.15;;;;;;;14.50;68.05;102086.09;5031851;28;20272;-82
2022/05/05 06:54:07;;;;;;;30.58;12.80;;;;;;;15.19;61.50;102088.94;5021928;28;20048;-83
2022/05/05 06:56:33;;;;;;;32.15;14.35;;;;;;;15.96;62.69;102087.97;5031483;28;20029;-82
2022/05/05 06:58:58;;;;;;;31.17;14.50;;;;;;;16.70;58.98;102087.69;5030547;28;20029;-82
2022/05/05 07:06:51;;;;;;;32.95;15.00;;;;;;;18.59;53.69;102093.66;5029570;28;20315;-83
2022/05/05 07:12:01;;;;;;;34.78;15.07;;;;;;;18.26;51.80;102103.59;5029311;28;20045;-82
2022/05/05 07:14:27;;;;;;;33.63;16.05;;;;;;;18.08;54.07;102115.56;5023395;28;20029;-83
2022/05/05 07:16:52;;;;;;;33.78;16.35;;;;;;;17.83;54.05;102114.69;5028739;28;20377;-83
2022/05/05 07:19:18;;;;;;;38.53;17.63;;;;;;;17.71;53.09;102115.97;5026164;28;20030;-82
2022/05/05 07:21:44;;;;;;;38.67;17.58;;;;;;;17.72;53.99;102119.47;5033469;28;20293;-83
2022/05/05 07:24:09;;;;;;;39.00;18.52;;;;;;;17.73;53.37;102118.56;5032004;28;20030;-82
2022/05/05 07:26:35;;;;;;;40.42;18.33;;;;;;;17.77;54.81;102125.41;5040645;28;20026;-82
2022/05/05 07:29:00;;;;;;;38.78;18.13;;;;;;;17.82;53.53;102128.72;5046562;28;20033;-82
2022/05/05 07:31:26;;;;;;;39.53;18.67;;;;;;;17.76;53.18;102127.16;5030642;28;20025;-82
2022/05/05 07:33:51;;;;;;;41.85;18.95;;;;;;;17.76;55.08;102139.41;5030442;28;20135;-82
2022/05/05 07:36:16;;;;;;;43.67;19.23;;;;;;;17.80;53.96;102135.81;5030415;28;20156;-82
2022/05/05 07:38:41;;;;;;;47.38;21.63;;;;;;;17.89;52.82;102132.84;5029581;28;20284;-82
2022/05/05 07:41:07;;;;;;;45.53;21.17;;;;;;;18.01;52.91;102132.47;5027755;28;20029;-82
2022/05/05 07:43:32;;;;;;;46.80;21.27;;;;;;;18.10;54.47;102136.53;5024795;28;21028;-82
2022/05/05 07:45:57;;;;;;;48.88;21.88;;;;;;;18.19;53.88;102133.59;5029944;28;20287;-82
2022/05/05 07:48:23;;;;;;;50.07;22.53;;;;;;;18.30;54.55;102133.22;5029142;28;20602;-82
2022/05/05 07:50:48;;;;;;;46.93;21.73;;;;;;;18.52;52.55;102137.66;5030311;28;20275;-83
2022/05/05 07:53:14;;;;;;;45.95;22.05;;;;;;;18.67;53.39;102141.53;5030199;28;20095;-81
2022/05/05 07:55:40;;;;;;;46.85;21.75;;;;;;;18.89;51.34;102134.56;5029094;28;20048;-81
2022/05/05 07:58:05;;;;;;;49.40;23.52;;;;;;;19.00;51.41;102144.66;5035435;28;20025;-80
2022/05/05 08:00:30;;;;;;;49.03;22.70;;;;;;;18.99;50.93;102137.69;5028249;28;20172;-82
2022/05/05 08:02:56;;;;;;;46.95;22.73;;;;;;;19.21;51.17;102143.84;5028916;28;20025;-82
2022/05/05 08:05:21;;;;;;;48.43;23.10;;;;;;;19.43;50.47;102146.50;5027893;28;20037;-82
2022/05/05 08:07:49;;;;;;;47.35;22.77;;;;;;;19.69;50.85;102142.84;5024753;28;20295;-81
2022/05/05 08:10:16;;;;;;;47.58;21.85;;;;;;;20.06;50.83;102153.53;5018262;28;20025;-81
2022/05/05 08:12:42;;;;;;;44.10;22.13;;;;;;;20.37;50.33;102145.22;5025859;28;20456;-81
2022/05/05 08:15:08;;;;;;;43.85;21.02;;;;;;;20.63;48.33;102148.47;5042235;28;20041;-81
2022/05/05 08:17:33;;;;;;;41.03;20.63;;;;;;;21.00;47.72;102156.44;5026411;28;20402;-81
2022/05/05 08:20:00;;;;;;;41.15;20.55;;;;;;;21.19;47.02;102149.41;5043797;28;20448;-81
2022/05/05 08:22:25;;;;;;;42.00;21.20;;;;;;;21.84;47.01;102152.38;5028236;28;20048;-81
2022/05/05 08:30:18;;;;;;;44.30;21.88;;;;;;;21.92;44.06;102161.66;5040837;28;20055;-82
2022/05/05 08:32:44;;;;;;;42.10;22.10;;;;;;;21.73;46.74;102158.22;5028350;28;20431;-81
2022/05/05 08:35:10;;;;;;;41.47;22.33;;;;;;;21.37;45.08;102162.63;5028516;28;20030;-82
2022/05/05 08:37:35;;;;;;;44.95;21.73;;;;;;;21.23;46.00;102171.19;5029544;28;20280;-82
2022/05/05 08:40:02;;;;;;;45.15;21.67;;;;;;;20.99;47.24;102165.25;5038393;28;20032;-82
2022/05/05 08:42:27;;;;;;;39.47;20.95;;;;;;;20.87;48.68;102168.47;5040619;28;20021;-81
2022/05/05 08:44:52;;;;;;;40.67;20.83;;;;;;;20.85;48.74;102175.56;5032457;28;20105;-82
2022/05/05 08:47:21;;;;;;;37.28;19.98;;;;;;;20.94;49.31;102176.94;5029543;28;20805;-82
2022/05/05 08:49:47;;;;;;;39.40;21.02;;;;;;;20.92;46.77;102177.00;5039057;28;20434;-82
2022/05/05 08:52:18;;;;;;;39.40;19.60;;;;;;;21.10;48.76;102181.44;5028813;28;20484;-81
2022/05/05 08:54:44;;;;;;;38.40;20.25;;;;;;;21.23;45.39;102179.09;5029206;28;20343;-81
2022/05/05 08:57:10;;;;;;;43.38;21.33;;;;;;;21.09;46.35;102187.63;5028881;28;20112;-82
2022/05/05 08:59:35;;;;;;;40.55;21.05;;;;;;;21.05;48.22;102175.53;5029164;28;20031;-81
2022/05/05 09:02:00;;;;;;;41.90;21.58;;;;;;;20.99;46.85;102178.44;5026830;28;20337;-81
2022/05/05 09:04:26;;;;;;;40.95;21.48;;;;;;;20.84;48.76;102182.63;5028978;28;20041;-82
2022/05/05 09:06:53;;;;;;;41.63;20.77;;;;;;;20.81;49.15;102182.75;5029232;28;20528;-82
2022/05/05 09:09:35;;;;;;;40.85;20.48;;;;;;;20.57;49.28;102188.25;5027437;28;20140;-81
2022/05/05 09:12:10;;;;;;;34.60;17.20;;;;;;;20.46;49.74;102186.97;5028965;28;20075;-82
2022/05/05 09:14:50;;;;;;;34.10;18.98;;;;;;;20.59;48.81;102187.28;5026229;28;20033;-82
2022/05/05 09:17:21;;;;;;;36.25;18.85;;;;;;;20.81;50.48;102187.19;5028591;28;20052;-81
2022/05/05 09:19:49;;;;;;;38.08;18.38;;;;;;;21.13;48.33;102191.84;5029311;28;20460;-81
2022/05/05 09:22:17;;;;;;;42.60;21.40;;;;;;;21.15;47.39;102181.22;5020709;28;20025;-81
2022/05/05 09:24:45;;;;;;;43.03;22.50;;;;;;;21.15;45.87;102186.50;5032388;28;20036;-81
2022/05/05 09:27:21;;;;;;;45.63;23.65;;;;;;;21.16;46.74;102189.09;5029889;28;20476;-82
2022/05/05 09:29:55;;;;;;;47.20;24.17;;;;;;;21.40;46.72;102180.97;5029362;28;20431;-82
2022/05/05 09:32:21;;;;;;;42.95;23.27;;;;;;;21.30;43.79;102191.06;5023884;28;20029;-82
2022/05/05 09:34:46;;;;;;;45.15;23.23;;;;;;;20.92;45.29;102184.06;5022607;28;20021;-81
2022/05/05 09:37:18;;;;;;;40.30;21.40;;;;;;;20.78;47.82;102192.59;5027621;28;20030;-82
2022/05/05 09:39:43;;;;;;;39.28;20.48;;;;;;;20.76;46.15;102192.66;5028899;28;20275;-81
2022/05/05 09:42:09;;;;;;;41.40;23.03;;;;;;;20.80;47.36;102188.97;5028470;28;20030;-82
2022/05/05 09:44:44;;;;;;;42.10;21.17;;;;;;;20.76;47.13;102192.66;5029055;28;20507;-82
2022/05/05 09:47:16;;;;;;;46.00;24.70;;;;;;;20.48;47.79;102203.53;5027475;28;20029;-82
2022/05/05 09:49:56;;;;;;;39.53;20.75;;;;;;;20.41;48.36;102201.25;5028220;28;20139;-81
2022/05/05 09:58:02;;;;;;;43.53;22.35;;;;;;;20.25;49.30;102203.66;5028524;28;20112;-81
2022/05/05 10:05:48;;;;;;;40.90;20.55;;;;;;;21.02;47.08;102203.78;5019942;28;20096;-81
2022/05/05 10:08:21;;;;;;;42.97;20.70;;;;;;;21.20;47.11;102201.22;5028460;28;20053;-81
2022/05/05 10:10:46;;;;;;;38.80;20.67;;;;;;;21.27;44.91;102207.94;5028643;28;20556;-81
2022/05/05 10:13:13;;;;;;;41.72;22.48;;;;;;;21.08;44.44;102207.03;5028332;28;20084;-81
2022/05/05 10:15:39;;;;;;;40.42;22.35;;;;;;;20.81;46.00;102197.75;5032070;28;20373;-81
2022/05/05 10:18:05;;;;;;;40.25;21.60;;;;;;;20.64;46.90;102203.75;5030672;28;20502;-81
2022/05/05 10:20:32;;;;;;;39.72;21.73;;;;;;;20.58;48.25;102200.53;5032189;28;20045;-81
2022/05/05 10:23:04;;;;;;;42.53;22.05;;;;;;;20.78;48.36;102198.72;5031742;28;20025;-82
2022/05/05 10:25:32;;;;;;;45.50;24.33;;;;;;;20.99;45.52;102193.41;5028209;28;20022;-81
2022/05/05 10:27:59;;;;;;;43.97;23.92;;;;;;;21.27;45.42;102201.78;5031755;28;20021;-82
2022/05/05 10:30:34;;;;;;;46.20;24.90;;;;;;;21.42;45.59;102189.66;5029817;28;20024;-81
2022/05/05 10:33:03;;;;;;;43.47;24.20;;;;;;;21.84;46.34;102197.25;5031508;28;20029;-82
2022/05/05 10:35:38;;;;;;;45.08;24.73;;;;;;;22.14;44.98;102192.28;5030425;28;20033;-81
2022/05/05 10:38:03;;;;;;;42.30;23.17;;;;;;;22.33;44.16;102195.69;5030076;28;20029;-82
2022/05/05 10:40:45;;;;;;;48.53;25.40;;;;;;;22.25;44.54;102201.38;5032021;28;20041;-81
2022/05/05 10:43:10;;;;;;;48.38;27.02;;;;;;;21.97;42.94;102193.97;5029695;28;20101;-81
2022/05/05 10:45:35;;;;;;;48.67;27.37;;;;;;;21.82;43.98;102202.66;5030844;28;20105;-82
2022/05/05 10:48:06;;;;;;;49.30;27.53;;;;;;;21.75;44.27;102201.25;5031604;28;20642;-81
2022/05/05 10:50:50;;;;;;;47.33;26.70;;;;;;;21.82;44.83;102197.38;5031643;28;20334;-81
2022/05/05 10:53:37;;;;;;;48.20;27.30;;;;;;;21.96;45.51;102204.66;5029732;28;20064;-81
2022/05/05 10:56:05;;;;;;;50.08;28.70;;;;;;;22.03;44.27;102204.25;5031451;28;20029;-82
2022/05/05 10:59:04;;;;;;;50.75;29.58;;;;;;;22.27;45.01;102199.50;5029670;28;20036;-82
2022/05/05 11:01:51;;;;;;;54.53;30.02;;;;;;;22.44;41.25;102198.66;5029677;28;20492;-82
2022/05/05 11:04:17;;;;;;;51.78;30.10;;;;;;;22.69;42.76;102195.59;5025789;28;20023;-81
2022/05/05 11:06:43;;;;;;;55.45;32.55;;;;;;;22.60;40.22;102204.84;5031425;28;20026;-82
2022/05/05 11:09:09;;;;;;;53.45;32.13;;;;;;;22.49;40.76;102203.69;5030987;28;20104;-81
2022/05/05 11:11:41;;;;;;;54.50;32.92;;;;;;;22.26;40.83;102196.94;5031121;28;20053;-82
2022/05/05 11:22:44;;;;;;;57.72;35.50;;;;;;;22.26;41.09;102203.09;5030936;28;20037;-82
2022/05/05 11:25:10;;;;;;;61.60;35.60;;;;;;;22.17;43.29;102200.06;5030738;28;20033;-81
2022/05/05 11:27:36;;;;;;;60.67;34.63;;;;;;;22.04;44.97;102195.38;5030497;28;20022;-81
2022/05/05 11:30:02;;;;;;;56.67;34.88;;;;;;;22.17;42.92;102200.94;5030388;28;20029;-82
2022/05/05 11:32:29;;;;;;;58.85;35.25;;;;;;;22.34;40.64;102194.78;5026993;28;20369;-81
2022/05/05 11:34:54;;;;;;;53.95;33.70;;;;;;;22.53;41.19;102194.66;5030726;28;20036;-81
2022/05/05 11:37:19;;;;;;;50.22;32.58;;;;;;;22.66;39.98;102199.22;5030211;28;20026;-81
2022/05/05 11:39:48;;;;;;;48.60;31.20;;;;;;;22.76;42.02;102197.00;5030580;28;20021;-81
2022/05/05 11:42:14;;;;;;;55.90;35.70;;;;;;;22.54;40.11;102197.25;5029383;28;20060;-82
2022/05/05 11:44:41;;;;;;;56.10;33.33;;;;;;;22.40;42.16;102197.94;5028722;28;20053;-82
2022/05/05 11:47:16;;;;;;;62.47;35.60;;;;;;;22.23;42.89;102197.13;5029926;28;20033;-82
2022/05/05 11:49:48;;;;;;;57.17;33.95;;;;;;;22.09;41.89;102192.53;5030552;28;20079;-82
2022/05/05 11:52:24;;;;;;;53.80;30.33;;;;;;;22.21;42.49;102196.34;5029933;28;20029;-81
2022/05/05 11:54:53;;;;;;;48.72;29.35;;;;;;;22.33;41.79;102193.91;5030237;28;20419;-81
2022/05/05 11:57:39;;;;;;;50.10;28.52;;;;;;;22.75;41.64;102192.66;5029007;28;20029;-81
2022/05/05 12:02:53;;;;;;;42.83;24.20;;;;;;;22.84;39.93;102186.88;5030448;28;20044;-82